Time;durP1;ratioP1;P1;durP2;ratioP2;P2;SDS_P1;SDS_P2;PMS_P1;PMS_P2;Temp;Humidity;BMP_temperature;BMP_pressure;BME280_temperature;BME280_humidity;BME280_pressure;Samples;Min_cycle;Max_cycle;Signal;HPM_P1;HPM_P2
2022/04/09 00:02:18;;;;;;;1.58;0.77;;;;;;;24.85;30.94;101219.28;4936324;29;20031;-43
2022/04/09 00:04:47;;;;;;;2.25;1.00;;;;;;;24.90;30.82;101222.00;4936689;29;20038;-44
2022/04/09 00:07:16;;;;;;;1.67;0.80;;;;;;;24.84;30.98;101225.38;4936578;29;20100;-43
2022/04/09 00:09:44;;;;;;;1.10;0.80;;;;;;;24.87;30.97;101223.72;4936496;29;20054;-46
2022/04/09 00:12:13;;;;;;;3.85;0.90;;;;;;;24.85;30.97;101228.06;4936965;29;20042;-43
2022/04/09 00:14:41;;;;;;;1.00;0.65;;;;;;;24.85;30.72;101235.03;4936547;29;20066;-47
2022/04/09 00:17:10;;;;;;;1.35;0.57;;;;;;;24.82;30.73;101242.88;4936386;29;20481;-43
2022/04/09 00:19:39;;;;;;;2.35;0.95;;;;;;;24.78;31.21;101243.69;4936756;29;20051;-51
2022/04/09 00:22:07;;;;;;;2.53;1.02;;;;;;;24.79;30.65;101251.56;4936752;29;20079;-43
2022/04/09 00:24:36;;;;;;;2.15;0.80;;;;;;;24.82;30.95;101250.75;4936622;29;20561;-47
2022/04/09 00:27:04;;;;;;;1.48;0.90;;;;;;;24.83;30.67;101248.13;4936402;29;20039;-44
2022/04/09 00:29:33;;;;;;;3.20;0.90;;;;;;;24.82;30.74;101256.00;4935825;29;20115;-44
2022/04/09 00:32:02;;;;;;;1.73;0.80;;;;;;;24.83;30.74;101258.63;4936192;29;20048;-44
2022/04/09 00:34:30;;;;;;;2.17;0.82;;;;;;;24.83;30.62;101258.63;4935969;29;20031;-45
2022/04/09 00:36:59;;;;;;;1.42;0.68;;;;;;;24.77;31.01;101255.91;4936264;29;20031;-49
2022/04/09 00:39:27;;;;;;;2.58;0.95;;;;;;;24.80;30.68;101266.44;4936038;29;20027;-48
2022/04/09 00:41:56;;;;;;;5.57;1.27;;;;;;;24.80;30.99;101270.84;4936201;29;20035;-44
2022/04/09 00:44:24;;;;;;;2.22;1.05;;;;;;;24.78;30.84;101270.78;4936145;29;20035;-46
2022/04/09 00:46:53;;;;;;;1.70;0.88;;;;;;;24.77;30.99;101265.53;4935877;29;20035;-44
2022/04/09 00:49:21;;;;;;;1.90;0.90;;;;;;;24.73;30.72;101275.13;4935938;29;20351;-44
2022/04/09 00:51:52;;;;;;;2.22;1.00;;;;;;;24.78;30.66;101280.41;4936168;29;20083;-44
2022/04/09 00:54:21;;;;;;;2.17;0.73;;;;;;;24.76;30.61;101288.25;4935586;29;20032;-43
2022/04/09 00:56:51;;;;;;;1.98;1.00;;;;;;;24.77;30.66;101282.16;4935564;29;20417;-45
2022/04/09 00:59:23;;;;;;;1.50;0.90;;;;;;;24.75;30.66;101296.09;4936030;29;20026;-46
2022/04/09 01:01:54;;;;;;;2.60;0.80;;;;;;;24.75;30.77;101298.72;4935879;29;20062;-44
2022/04/09 01:04:23;;;;;;;1.75;0.90;;;;;;;24.75;31.00;101298.72;4936202;29;20446;-43
2022/04/09 01:06:51;;;;;;;5.28;1.10;;;;;;;24.78;30.95;101296.16;4919005;29;20488;-44
2022/04/09 01:09:19;;;;;;;2.63;1.15;;;;;;;24.71;30.78;101289.94;4935917;29;20059;-51
2022/04/09 01:11:48;;;;;;;2.25;1.00;;;;;;;24.71;30.52;101296.06;4936053;29;20034;-53
2022/04/09 01:14:17;;;;;;;3.22;1.27;;;;;;;24.75;30.37;101296.97;4937716;29;20031;-54
2022/04/09 01:16:45;;;;;;;1.92;1.13;;;;;;;24.71;30.62;101303.94;4939366;29;20043;-47
2022/04/09 01:19:14;;;;;;;1.52;0.98;;;;;;;24.75;30.87;101307.47;4939251;29;20028;-44
2022/04/09 01:21:42;;;;;;;2.33;0.75;;;;;;;24.70;30.96;101310.03;4939320;29;20024;-45
2022/04/09 01:24:11;;;;;;;1.98;0.68;;;;;;;24.75;30.38;101306.59;4922983;29;20024;-46
2022/04/09 01:26:39;;;;;;;2.25;0.98;;;;;;;24.72;30.59;101304.81;4938969;29;20466;-43
2022/04/09 01:29:08;;;;;;;3.50;0.85;;;;;;;24.70;30.82;101310.03;4939358;29;20050;-49
2022/04/09 01:31:36;;;;;;;2.50;0.95;;;;;;;24.71;30.70;101311.81;4922747;29;20043;-46
2022/04/09 01:34:05;;;;;;;1.95;1.00;;;;;;;24.68;30.56;101309.09;4939333;29;20047;-46
2022/04/09 01:36:34;;;;;;;2.08;1.05;;;;;;;24.69;30.46;101308.22;4939869;29;20042;-44
2022/04/09 01:39:02;;;;;;;1.83;0.80;;;;;;;24.71;30.52;101309.19;4939359;29;20047;-45
2022/04/09 01:41:30;;;;;;;1.77;0.82;;;;;;;24.67;30.83;101312.56;4939167;29;20031;-50
2022/04/09 01:43:59;;;;;;;4.60;0.98;;;;;;;24.69;30.57;101316.09;4939256;29;20027;-43
2022/04/09 01:46:27;;;;;;;1.88;1.00;;;;;;;24.70;30.49;101314.41;4939098;29;20042;-43
2022/04/09 01:48:55;;;;;;;1.88;0.90;;;;;;;24.66;30.84;101320.44;4939015;29;20050;-43
2022/04/09 01:51:24;;;;;;;2.00;0.90;;;;;;;24.67;30.76;101328.31;4939360;29;20030;-47
2022/04/09 01:53:52;;;;;;;2.03;1.00;;;;;;;24.66;30.69;101337.03;4922292;29;20063;-47
2022/04/09 01:56:21;;;;;;;2.28;0.80;;;;;;;24.65;30.71;101345.78;4938919;29;20039;-44
2022/04/09 01:58:49;;;;;;;2.17;1.02;;;;;;;24.65;30.42;101344.91;4939030;29;20390;-44
2022/04/09 02:01:19;;;;;;;1.60;0.88;;;;;;;24.65;30.48;101348.41;4938845;29;20034;-50
2022/04/09 02:03:47;;;;;;;2.78;1.00;;;;;;;24.69;30.26;101341.47;4939099;29;20031;-48
2022/04/09 02:06:16;;;;;;;3.60;1.05;;;;;;;24.71;30.52;101327.53;4938667;29;20038;-44
2022/04/09 02:08:44;;;;;;;1.58;0.95;;;;;;;24.64;30.64;101333.53;4938718;29;20036;-44
2022/04/09 02:11:14;;;;;;;3.08;0.80;;;;;;;24.64;30.47;101320.41;4938751;29;20474;-44
2022/04/09 02:13:42;;;;;;;2.00;0.90;;;;;;;24.67;30.83;101324.81;4938675;29;20087;-45
2022/04/09 02:16:10;;;;;;;2.22;1.08;;;;;;;24.66;30.46;101330.91;4938156;29;20031;-44
2022/04/09 02:18:38;;;;;;;1.38;0.70;;;;;;;24.65;30.38;101330.06;4938509;29;20036;-44
2022/04/09 02:21:07;;;;;;;1.73;0.75;;;;;;;24.65;30.47;101329.16;4938583;29;20057;-47
2022/04/09 02:23:34;;;;;;;1.85;0.80;;;;;;;24.64;30.77;101330.00;4938203;29;20485;-49
2022/04/09 02:26:03;;;;;;;1.40;0.70;;;;;;;24.57;30.61;101335.16;4938449;29;20031;-45
2022/04/09 02:28:32;;;;;;;3.60;0.93;;;;;;;24.54;30.61;101339.47;4938484;29;20035;-52
2022/04/09 02:31:02;;;;;;;3.05;0.77;;;;;;;24.63;30.41;101337.00;4938119;29;20054;-51
2022/04/09 02:33:30;;;;;;;1.77;0.80;;;;;;;24.60;30.90;101343.94;4921390;29;20461;-45
2022/04/09 02:35:59;;;;;;;1.25;0.77;;;;;;;24.61;30.57;101346.59;4938168;29;20035;-46
2022/04/09 02:38:27;;;;;;;2.10;0.80;;;;;;;24.58;30.65;101350.03;4938359;29;20091;-44
2022/04/09 02:40:56;;;;;;;2.20;0.95;;;;;;;24.55;30.72;101349.09;4938324;29;20028;-47
2022/04/09 02:43:24;;;;;;;1.45;0.70;;;;;;;24.56;30.42;101348.25;4938523;29;20497;-45
2022/04/09 02:45:51;;;;;;;1.13;0.75;;;;;;;24.55;30.77;101352.63;4938129;29;20075;-46
2022/04/09 02:48:20;;;;;;;2.28;0.90;;;;;;;24.57;30.45;101348.25;4938239;29;20485;-45
2022/04/09 02:50:48;;;;;;;1.13;0.63;;;;;;;24.59;30.48;101350.94;4937966;29;20032;-45
2022/04/09 02:53:17;;;;;;;2.00;0.65;;;;;;;24.58;30.61;101349.16;4937962;29;20028;-44
2022/04/09 02:55:46;;;;;;;3.00;0.93;;;;;;;24.55;30.79;101351.72;4937682;29;20046;-51
2022/04/09 02:58:15;;;;;;;2.72;0.90;;;;;;;24.49;30.42;101334.16;4937792;29;20036;-44
2022/04/09 03:00:43;;;;;;;2.35;0.70;;;;;;;24.55;30.54;101343.84;4938086;29;20082;-44
2022/04/09 03:03:12;;;;;;;2.40;0.90;;;;;;;24.56;30.49;101348.25;4937839;29;20098;-44
2022/04/09 03:05:40;;;;;;;7.63;0.75;;;;;;;24.55;30.38;101343.84;4937551;29;20032;-45
2022/04/09 03:08:09;;;;;;;1.42;0.55;;;;;;;24.55;30.44;101346.47;4921004;29;20028;-49
2022/04/09 03:10:37;;;;;;;1.80;0.70;;;;;;;24.54;30.61;101348.25;4921220;29;20090;-50
2022/04/09 03:13:06;;;;;;;1.70;0.70;;;;;;;24.58;30.68;101351.78;4937528;29;20036;-44
2022/04/09 03:15:34;;;;;;;0.40;0.40;;;;;;;24.52;30.46;101355.19;4937644;29;20039;-48
2022/04/09 03:18:03;;;;;;;2.13;0.80;;;;;;;24.54;30.85;101355.19;4937569;29;20541;-50
2022/04/09 03:20:32;;;;;;;2.30;0.60;;;;;;;24.54;30.35;101356.09;4937573;29;20035;-44
2022/04/09 03:23:00;;;;;;;2.33;0.93;;;;;;;24.53;30.49;101358.69;4937576;29;20034;-47
2022/04/09 03:25:29;;;;;;;1.95;0.52;;;;;;;24.51;30.51;101355.16;4937190;29;20059;-45
2022/04/09 03:27:57;;;;;;;2.97;0.77;;;;;;;24.47;30.56;101356.84;4937301;29;20090;-48
2022/04/09 03:30:26;;;;;;;1.67;0.60;;;;;;;24.50;30.65;101359.53;4937122;29;20036;-44
2022/04/09 03:32:55;;;;;;;2.00;0.90;;;;;;;24.50;30.78;101370.00;4937483;29;20027;-44
2022/04/09 03:35:23;;;;;;;1.52;0.68;;;;;;;24.46;30.54;101373.44;4937407;29;20644;-51
2022/04/09 03:37:52;;;;;;;1.15;0.57;;;;;;;24.51;30.42;101373.50;4936494;29;20470;-44
2022/04/09 03:40:20;;;;;;;1.67;0.63;;;;;;;24.49;30.51;101372.63;4937483;29;20032;-47
2022/04/09 03:42:49;;;;;;;1.02;0.40;;;;;;;24.49;30.77;101376.13;4937369;29;20031;-43
2022/04/09 03:45:17;;;;;;;2.55;0.63;;;;;;;24.47;30.85;101371.72;4937151;29;20055;-45
2022/04/09 03:47:46;;;;;;;1.75;0.70;;;;;;;24.51;30.68;101376.13;4936916;29;20441;-45
2022/04/09 03:50:14;;;;;;;2.25;0.90;;;;;;;24.47;30.42;101369.94;4936965;29;20099;-47
2022/04/09 03:52:43;;;;;;;1.20;0.60;;;;;;;24.50;30.78;101379.59;4936784;29;20091;-49
2022/04/09 03:55:12;;;;;;;2.33;0.50;;;;;;;24.49;30.29;101372.63;4936388;29;20028;-43
2022/04/09 03:57:40;;;;;;;1.42;0.73;;;;;;;24.52;30.81;101377.91;4936104;29;20169;-49
2022/04/09 04:00:10;;;;;;;1.90;0.60;;;;;;;24.49;30.36;101377.88;4937042;29;20035;-45
2022/04/09 04:02:38;;;;;;;1.42;0.68;;;;;;;24.42;31.07;101369.88;4937112;29;20032;-47
2022/04/09 04:05:07;;;;;;;1.85;0.60;;;;;;;24.50;30.45;101379.59;4936583;29;20031;-46
2022/04/09 04:07:36;;;;;;;1.40;0.75;;;;;;;24.48;30.41;101384.84;4936348;29;20031;-47
2022/04/09 04:10:08;;;;;;;1.80;0.65;;;;;;;24.51;30.26;101381.38;4936765;29;20151;-48
2022/04/09 04:12:36;;;;;;;2.05;0.45;;;;;;;24.43;30.69;101382.13;4937008;29;20034;-51
2022/04/09 04:15:05;;;;;;;1.48;0.63;;;;;;;24.45;30.61;101395.25;4936559;29;20028;-44
2022/04/09 04:17:53;;;;;;;1.90;0.50;;;;;;;24.52;30.50;101391.00;4936460;29;20036;-48
2022/04/09 04:20:20;;;;;;;2.03;0.70;;;;;;;24.50;30.37;101393.63;4936518;29;20498;-47
2022/04/09 04:22:48;;;;;;;1.63;0.70;;;;;;;24.50;30.57;101392.72;4936479;29;20470;-48
2022/04/09 04:25:17;;;;;;;1.58;0.70;;;;;;;24.47;30.61;101384.81;4936439;29;20122;-44
2022/04/09 04:27:47;;;;;;;2.17;0.70;;;;;;;24.46;30.42;101393.53;4936348;29;20401;-47
2022/04/09 04:30:15;;;;;;;1.10;0.50;;;;;;;24.46;30.27;101396.16;4936000;29;20379;-51
2022/04/09 04:32:44;;;;;;;1.73;0.60;;;;;;;24.49;30.60;101402.34;4935924;29;20052;-48
2022/04/09 04:35:13;;;;;;;2.03;0.52;;;;;;;24.50;30.61;101401.50;4936614;29;20039;-48
2022/04/09 04:37:43;;;;;;;1.77;0.80;;;;;;;24.49;30.20;101402.34;4936057;29;20375;-45
2022/04/09 04:40:12;;;;;;;1.45;0.50;;;;;;;24.48;30.36;101408.44;4936271;29;20039;-43
2022/04/09 04:42:41;;;;;;;1.95;0.70;;;;;;;24.50;30.19;101408.44;4936801;29;20032;-47
2022/04/09 04:45:10;;;;;;;2.70;0.60;;;;;;;24.50;30.37;101408.44;4935956;29;20031;-43
2022/04/09 04:47:57;;;;;;;1.55;0.60;;;;;;;24.35;30.62;101396.84;4936484;29;20032;-48
2022/04/09 04:50:26;;;;;;;2.13;0.57;;;;;;;24.40;30.37;101421.41;4936530;29;20028;-50
2022/04/09 04:52:53;;;;;;;1.33;0.60;;;;;;;24.47;30.45;101430.28;4935622;29;20437;-48
2022/04/09 04:55:22;;;;;;;0.75;0.35;;;;;;;24.44;30.69;101427.59;4935626;29;20055;-51
2022/04/09 04:57:51;;;;;;;3.78;0.70;;;;;;;24.45;30.18;101423.25;4935822;29;20043;-45
2022/04/09 05:00:22;;;;;;;1.42;0.40;;;;;;;24.48;30.33;101425.94;4936166;29;20100;-47
2022/04/09 05:02:51;;;;;;;0.50;0.30;;;;;;;24.47;30.62;101429.41;4936204;29;20039;-44
2022/04/09 05:05:21;;;;;;;1.55;0.70;;;;;;;24.46;30.11;101427.63;4935780;29;20032;-44
2022/04/09 05:07:51;;;;;;;1.27;0.40;;;;;;;24.47;30.29;101430.28;4918664;29;20031;-46
2022/04/09 05:10:21;;;;;;;2.05;0.85;;;;;;;24.45;30.36;101431.13;4935767;29;20032;-43
2022/04/09 05:12:51;;;;;;;2.00;0.70;;;;;;;24.43;30.27;101436.31;4935964;29;20027;-48
2022/04/09 05:15:20;;;;;;;1.70;0.40;;;;;;;24.46;30.61;101432.88;4935969;29;20035;-45
2022/04/09 05:17:48;;;;;;;1.38;0.70;;;;;;;24.45;30.38;101434.59;4935737;29;20032;-44
2022/04/09 05:20:18;;;;;;;1.00;0.35;;;;;;;24.46;30.25;101433.75;4935688;29;20434;-44
2022/04/09 05:22:47;;;;;;;1.48;0.50;;;;;;;24.43;30.73;101439.84;4935598;29;20453;-45
2022/04/09 05:25:18;;;;;;;1.63;0.63;;;;;;;24.39;30.24;101432.75;4935809;29;20516;-48
2022/04/09 05:27:47;;;;;;;1.52;0.52;;;;;;;24.42;30.28;101437.16;4935983;29;20094;-46
2022/04/09 05:30:16;;;;;;;0.93;0.45;;;;;;;24.43;30.17;101436.31;4935779;29;20020;-47
2022/04/09 05:32:44;;;;;;;2.90;0.68;;;;;;;24.38;30.13;101432.75;4935447;29;20088;-48
2022/04/09 05:35:13;;;;;;;1.52;0.65;;;;;;;24.44;30.32;101440.69;4935548;29;20055;-51
2022/04/09 05:37:46;;;;;;;2.25;0.40;;;;;;;24.39;30.68;101451.13;4935479;29;20114;-47
2022/04/09 05:40:14;;;;;;;1.23;0.57;;;;;;;24.25;30.25;101418.50;4935790;29;20038;-44
2022/04/09 05:42:42;;;;;;;2.45;0.50;;;;;;;24.43;30.11;101446.78;4935455;29;20525;-49
2022/04/09 05:45:11;;;;;;;0.77;0.40;;;;;;;24.42;30.52;101456.41;4918503;29;20037;-51
2022/04/09 05:47:41;;;;;;;1.70;0.55;;;;;;;24.42;30.64;101458.16;4935487;29;20386;-46
2022/04/09 05:50:09;;;;;;;2.30;0.75;;;;;;;24.37;30.44;101460.69;4935584;29;20066;-45
2022/04/09 05:52:37;;;;;;;1.77;0.60;;;;;;;24.37;30.24;101465.06;4935321;29;20031;-46
2022/04/09 05:55:06;;;;;;;2.38;0.38;;;;;;;24.34;30.40;101460.63;4935594;29;20051;-51
2022/04/09 05:57:34;;;;;;;0.90;0.43;;;;;;;24.39;30.34;101456.34;4935216;29;20477;-46
2022/04/09 06:00:05;;;;;;;1.85;0.68;;;;;;;24.38;30.44;101461.59;4936671;29;20533;-49
2022/04/09 06:02:35;;;;;;;0.82;0.35;;;;;;;24.42;29.97;101464.28;4938971;29;20039;-44
2022/04/09 06:05:04;;;;;;;2.20;0.80;;;;;;;24.37;30.63;101468.56;4939180;29;20031;-43
2022/04/09 06:07:33;;;;;;;1.23;0.40;;;;;;;24.42;30.55;101463.38;4938878;29;20496;-45
2022/04/09 06:10:03;;;;;;;1.60;0.55;;;;;;;24.41;30.45;101466.88;4921802;29;20047;-47
2022/04/09 06:12:32;;;;;;;1.00;0.68;;;;;;;24.41;30.33;101470.38;4938833;29;20036;-48
2022/04/09 06:15:01;;;;;;;2.65;0.40;;;;;;;24.45;30.57;101473.94;4939188;29;20477;-46
2022/04/09 06:17:29;;;;;;;0.80;0.40;;;;;;;24.46;30.14;101477.47;4938535;29;20035;-49
2022/04/09 06:19:58;;;;;;;1.35;0.40;;;;;;;24.46;30.49;101480.09;4938506;29;20095;-47
2022/04/09 06:22:26;;;;;;;0.85;0.40;;;;;;;24.44;30.04;101485.28;4938389;29;20036;-45
2022/04/09 06:24:55;;;;;;;1.02;0.50;;;;;;;24.43;30.18;101487.03;4938995;29;20043;-44
2022/04/09 06:27:23;;;;;;;1.00;0.40;;;;;;;24.40;30.34;101491.34;4937896;29;20036;-44
2022/04/09 06:29:52;;;;;;;2.65;0.73;;;;;;;24.42;30.22;101485.25;4937731;29;20115;-47
2022/04/09 06:32:21;;;;;;;0.77;0.40;;;;;;;24.44;30.77;101487.91;4937666;29;20048;-46
2022/04/09 06:34:49;;;;;;;0.50;0.40;;;;;;;24.37;30.65;101481.66;4938018;29;20038;-44
2022/04/09 06:37:18;;;;;;;3.00;0.52;;;;;;;24.44;30.53;101487.91;4938380;29;20042;-50
2022/04/09 06:39:46;;;;;;;0.47;0.38;;;;;;;24.46;30.46;101485.34;4938223;29;20036;-45
2022/04/09 06:42:14;;;;;;;0.85;0.40;;;;;;;24.51;30.49;101488.91;4938037;29;20488;-48
2022/04/09 06:44:43;;;;;;;0.88;0.50;;;;;;;24.55;30.51;101498.59;4938407;29;20438;-47
2022/04/09 06:47:12;;;;;;;3.47;0.80;;;;;;;24.57;30.75;101497.78;4938096;29;20102;-49
2022/04/09 06:49:40;;;;;;;1.70;0.43;;;;;;;24.55;30.67;101496.88;4938053;29;20106;-51
2022/04/09 06:52:09;;;;;;;0.80;0.32;;;;;;;24.61;30.81;101508.31;4937926;29;20051;-45
2022/04/09 06:54:37;;;;;;;1.67;0.60;;;;;;;24.62;30.53;101510.09;4937428;29;20585;-46
2022/04/09 06:57:06;;;;;;;1.08;0.43;;;;;;;24.66;30.41;101517.19;4937703;29;20469;-44
2022/04/09 06:59:34;;;;;;;0.85;0.40;;;;;;;24.71;30.56;101518.19;4938300;29;20106;-47
2022/04/09 07:02:03;;;;;;;1.38;0.57;;;;;;;24.71;30.54;101521.69;4937994;29;20028;-47
2022/04/09 07:04:32;;;;;;;0.85;0.45;;;;;;;24.72;30.95;101517.34;4937697;29;20032;-45
2022/04/09 07:07:01;;;;;;;6.28;0.60;;;;;;;24.81;30.46;101533.25;4921548;29;20067;-48
2022/04/09 07:09:30;;;;;;;1.40;0.50;;;;;;;24.86;30.61;101530.69;4937813;29;20031;-48
2022/04/09 07:11:58;;;;;;;0.68;0.40;;;;;;;24.89;30.66;101536.00;4936358;29;20107;-45
2022/04/09 07:14:27;;;;;;;1.10;0.40;;;;;;;24.91;30.80;101547.41;4937602;29;20023;-44
2022/04/09 07:16:58;;;;;;;1.10;0.52;;;;;;;24.94;30.89;101544.84;4937442;29;20042;-44
2022/04/09 07:19:27;;;;;;;1.63;0.40;;;;;;;25.00;30.62;101549.31;4937590;29;20488;-46
2022/04/09 07:21:55;;;;;;;1.52;0.40;;;;;;;25.07;30.88;101556.44;4937562;29;20032;-48
2022/04/09 07:24:24;;;;;;;0.68;0.45;;;;;;;25.12;30.79;101554.78;4937416;29;20054;-49
2022/04/09 07:26:53;;;;;;;1.73;0.50;;;;;;;25.15;30.54;101567.09;4937276;29;20034;-50
2022/04/09 07:29:22;;;;;;;1.00;0.40;;;;;;;25.20;30.89;101577.69;4937601;29;20032;-45
2022/04/09 07:31:50;;;;;;;0.85;0.38;;;;;;;25.21;30.94;101572.44;4937171;29;20103;-48
2022/04/09 07:34:19;;;;;;;0.55;0.22;;;;;;;25.26;30.57;101576.03;4920567;29;20027;-44
2022/04/09 07:36:47;;;;;;;2.28;0.50;;;;;;;25.32;30.89;101580.50;4937224;29;20066;-45
2022/04/09 07:39:16;;;;;;;2.38;0.98;;;;;;;25.34;30.80;101579.66;4937323;29;20059;-45
2022/04/09 07:41:45;;;;;;;1.77;0.43;;;;;;;25.41;30.82;101587.66;4937315;29;20016;-46
2022/04/09 07:44:14;;;;;;;1.13;0.45;;;;;;;25.45;30.60;101585.13;4937059;29;20446;-44
2022/04/09 07:46:42;;;;;;;0.88;0.40;;;;;;;25.50;30.84;101582.56;4936781;29;20030;-44
2022/04/09 07:49:11;;;;;;;2.38;0.60;;;;;;;25.53;30.98;101589.66;4937068;29;20447;-44
2022/04/09 07:51:39;;;;;;;3.10;0.63;;;;;;;25.61;30.61;101586.28;4920430;29;20047;-48
2022/04/09 07:54:08;;;;;;;1.52;0.45;;;;;;;25.65;30.58;101592.47;4920363;29;20030;-46
2022/04/09 07:56:37;;;;;;;2.17;0.40;;;;;;;25.72;30.74;101593.44;4936904;29;20031;-46
2022/04/09 07:59:05;;;;;;;1.52;0.60;;;;;;;25.74;30.66;101586.47;4936950;29;20032;-45
2022/04/09 08:01:34;;;;;;;1.10;0.55;;;;;;;25.77;30.81;101597.03;4937253;29;20027;-48
2022/04/09 08:04:02;;;;;;;1.02;0.50;;;;;;;25.80;30.75;101599.72;4936846;29;20114;-47
2022/04/09 08:06:32;;;;;;;1.75;0.50;;;;;;;25.84;30.60;101605.88;4936498;29;20039;-45
2022/04/09 08:09:01;;;;;;;0.85;0.45;;;;;;;25.92;30.79;101607.78;4936919;29;20519;-44
2022/04/09 08:11:29;;;;;;;1.40;0.50;;;;;;;25.94;30.53;101608.69;4936722;29;20119;-47
2022/04/09 08:13:58;;;;;;;1.83;0.50;;;;;;;25.99;30.29;101607.84;4936858;29;20032;-45
2022/04/09 08:16:27;;;;;;;3.22;0.50;;;;;;;26.05;30.62;101611.47;4936860;29;20030;-44
2022/04/09 08:18:55;;;;;;;1.30;0.60;;;;;;;26.04;30.23;101609.69;4936728;29;20402;-51
2022/04/09 08:21:24;;;;;;;1.15;0.63;;;;;;;26.13;30.52;101622.13;4936409;29;20035;-45
2022/04/09 08:23:53;;;;;;;1.08;0.50;;;;;;;26.12;30.61;101625.63;4935660;29;20023;-50
2022/04/09 08:26:22;;;;;;;2.10;0.82;;;;;;;26.17;30.51;101623.91;4936319;29;20037;-44
2022/04/09 08:28:50;;;;;;;1.08;0.57;;;;;;;26.21;30.50;101632.75;4936298;29;20039;-47
2022/04/09 08:31:19;;;;;;;1.60;0.40;;;;;;;26.24;30.13;101630.16;4936227;29;20051;-44
2022/04/09 08:33:47;;;;;;;1.90;0.60;;;;;;;26.31;30.19;101634.63;4919289;29;20034;-44
2022/04/09 08:36:16;;;;;;;1.77;0.60;;;;;;;26.17;30.24;101608.13;4936401;29;20027;-44
2022/04/09 08:38:44;;;;;;;1.58;0.55;;;;;;;26.34;30.09;101633.78;4936244;29;20035;-44
2022/04/09 08:41:17;;;;;;;2.35;0.43;;;;;;;26.39;30.24;101632.13;4936286;29;20032;-46
2022/04/09 08:43:45;;;;;;;1.00;0.40;;;;;;;26.44;30.33;101634.81;4919378;29;20027;-45
2022/04/09 08:46:14;;;;;;;3.10;0.50;;;;;;;26.45;30.13;101634.84;4935943;29;20043;-45
2022/04/09 08:48:44;;;;;;;1.05;0.40;;;;;;;26.48;30.15;101641.88;4936432;29;20024;-44
2022/04/09 08:51:12;;;;;;;1.52;0.57;;;;;;;26.51;30.24;101642.78;4935972;29;20039;-47
2022/04/09 08:53:42;;;;;;;1.67;0.45;;;;;;;26.53;30.18;101642.84;4935711;29;20028;-44
2022/04/09 08:56:12;;;;;;;1.42;0.52;;;;;;;26.54;30.20;101644.59;4919610;29;20023;-45
2022/04/09 08:58:39;;;;;;;1.95;0.57;;;;;;;26.59;30.04;101645.53;4936070;29;20043;-43
2022/04/09 09:01:08;;;;;;;2.55;0.52;;;;;;;26.59;29.86;101637.63;4935733;29;20059;-47
2022/04/09 09:03:37;;;;;;;1.85;0.70;;;;;;;26.69;29.81;101644.78;4935779;29;20029;-44
2022/04/09 09:06:27;;;;;;;2.40;0.52;;;;;;;26.72;29.95;101656.22;4935254;29;20482;-51
2022/04/09 09:08:57;;;;;;;3.35;0.70;;;;;;;26.72;30.19;101657.09;4936169;29;20397;-45
2022/04/09 09:11:27;;;;;;;1.70;0.47;;;;;;;26.74;29.88;101663.25;4918901;29;20059;-47
2022/04/09 09:13:57;;;;;;;2.58;0.70;;;;;;;26.80;29.68;101663.38;4935995;29;20023;-44
2022/04/09 09:16:27;;;;;;;0.75;0.20;;;;;;;26.81;29.90;101664.25;4935853;29;20045;-45
2022/04/09 09:19:02;;;;;;;0.95;0.40;;;;;;;26.82;29.91;101661.63;4935806;29;20541;-46
2022/04/09 09:21:31;;;;;;;1.42;0.50;;;;;;;26.87;29.62;101664.34;4935930;29;20110;-47
2022/04/09 09:24:08;;;;;;;1.20;0.50;;;;;;;26.90;29.84;101666.97;4935698;29;20381;-47
2022/04/09 09:26:38;;;;;;;1.27;0.47;;;;;;;26.93;29.78;101674.06;4935796;29;20034;-48
2022/04/09 09:29:08;;;;;;;1.20;0.40;;;;;;;26.94;29.85;101681.09;4936074;29;20492;-49
2022/04/09 09:31:44;;;;;;;1.88;0.60;;;;;;;26.95;29.62;101680.22;4918940;29;20047;-50
2022/04/09 09:34:18;;;;;;;1.92;0.73;;;;;;;26.92;29.64;101674.91;4935620;29;20034;-46
2022/04/09 09:36:47;;;;;;;2.78;0.77;;;;;;;26.99;29.51;101684.63;4939450;29;20039;-45
2022/04/09 09:39:17;;;;;;;0.70;0.40;;;;;;;27.01;29.65;101684.66;4938704;29;20393;-46
2022/04/09 09:41:57;;;;;;;0.77;0.30;;;;;;;27.04;29.50;101692.59;4939522;29;20394;-48
2022/04/09 09:44:27;;;;;;;2.05;0.60;;;;;;;27.05;29.46;101691.75;4938705;29;20028;-47
2022/04/09 09:46:56;;;;;;;4.45;0.80;;;;;;;27.07;29.39;101700.50;4939165;29;20104;-48
2022/04/09 09:49:25;;;;;;;2.55;0.55;;;;;;;27.07;29.35;101701.41;4906790;29;20066;-48
2022/04/09 09:52:13;;;;;;;4.32;0.65;;;;;;;27.07;29.44;101698.78;4906819;29;20031;-47
2022/04/09 09:55:01;;;;;;;2.50;0.57;;;;;;;27.10;29.53;101701.47;4938908;29;20554;-46
2022/04/09 09:57:32;;;;;;;1.27;0.50;;;;;;;27.09;29.47;101704.06;4933540;29;20098;-46
2022/04/09 10:00:04;;;;;;;2.22;0.55;;;;;;;27.10;29.32;101712.00;4939040;29;20039;-44
2022/04/09 10:02:33;;;;;;;0.77;0.30;;;;;;;27.13;29.46;101713.78;4939207;29;20028;-44
2022/04/09 10:05:02;;;;;;;1.15;0.45;;;;;;;27.12;29.42;101712.91;4921957;29;20031;-44
2022/04/09 10:07:30;;;;;;;1.95;0.60;;;;;;;27.14;29.33;101713.78;4938879;29;20032;-48
2022/04/09 10:10:01;;;;;;;1.45;0.60;;;;;;;27.15;29.38;101707.63;4921963;29;20398;-45
2022/04/09 10:12:30;;;;;;;2.35;0.73;;;;;;;27.18;29.10;101716.44;4938887;29;20474;-51
2022/04/09 10:15:00;;;;;;;0.68;0.40;;;;;;;27.18;29.44;101719.09;4938929;29;20060;-44
2022/04/09 10:17:29;;;;;;;0.90;0.40;;;;;;;27.17;29.31;101714.69;4921860;29;20413;-43
2022/04/09 10:19:58;;;;;;;1.00;0.45;;;;;;;27.21;29.25;101714.75;4921720;29;20027;-44
2022/04/09 10:22:31;;;;;;;0.90;0.30;;;;;;;27.25;29.25;101726.19;4938556;29;20031;-51
2022/04/09 10:25:01;;;;;;;1.30;0.60;;;;;;;27.25;29.29;101718.28;4938732;29;20027;-43
2022/04/09 10:27:52;;;;;;;3.85;0.70;;;;;;;27.26;29.17;101713.03;4921576;29;20044;-50
2022/04/09 10:30:22;;;;;;;2.58;0.52;;;;;;;27.26;29.40;101712.16;4934339;29;20123;-43
2022/04/09 10:32:53;;;;;;;1.45;0.40;;;;;;;27.31;29.11;101720.97;4919791;29;20397;-44
2022/04/09 10:35:38;;;;;;;1.50;0.40;;;;;;;27.30;28.95;101717.47;4919341;29;20028;-44
2022/04/09 10:38:09;;;;;;;;;;;;;;;27.37;28.90;101707.00;4919549;29;20043;-43
2022/04/09 10:40:57;;;;;;;1.15;0.45;;;;;;;27.42;28.85;101710.56;4919583;29;19915;-45
2022/04/09 10:43:25;;;;;;;1.67;0.40;;;;;;;27.41;28.79;101700.88;4918928;29;20474;-44
2022/04/09 10:46:04;;;;;;;1.23;0.40;;;;;;;27.40;29.03;101707.03;4919054;29;20418;-44
2022/04/09 10:48:35;;;;;;;2.65;0.60;;;;;;;27.38;28.85;101704.38;4919363;29;20104;-44
2022/04/09 10:51:08;;;;;;;0.70;0.47;;;;;;;27.41;28.69;101714.06;4918983;29;20422;-44
2022/04/09 10:53:39;;;;;;;4.50;0.57;;;;;;;27.43;28.90;101707.06;4919123;29;20035;-44
2022/04/09 10:56:32;;;;;;;2.88;0.50;;;;;;;27.42;28.80;101702.66;4918930;29;20028;-44
2022/04/09 10:59:13;;;;;;;1.10;0.38;;;;;;;27.43;28.82;101705.31;4919010;29;20470;-44
2022/04/09 11:01:46;;;;;;;1.10;0.38;;;;;;;27.45;28.94;101702.69;4919283;29;20389;-45
2022/04/09 11:04:34;;;;;;;0.82;0.45;;;;;;;27.46;28.94;101707.13;4919422;29;20054;-44
2022/04/09 11:07:14;;;;;;;2.13;0.43;;;;;;;27.45;28.81;101707.97;4902033;29;20084;-45
2022/04/09 11:10:01;;;;;;;2.53;0.65;;;;;;;27.46;28.89;101706.25;4918978;29;20434;-44
2022/04/09 11:12:32;;;;;;;1.40;0.50;;;;;;;27.44;28.89;101711.47;4909755;29;20040;-45
2022/04/09 11:15:02;;;;;;;1.58;0.73;;;;;;;27.49;28.67;101716.81;4902217;29;20036;-44
2022/04/09 11:17:36;;;;;;;1.10;0.43;;;;;;;27.46;28.69;101709.75;4918344;29;20115;-46
2022/04/09 11:20:07;;;;;;;1.27;0.47;;;;;;;27.48;28.46;101696.59;4918642;29;20036;-43
2022/04/09 11:22:38;;;;;;;0.90;0.30;;;;;;;27.47;28.61;101708.91;4918634;29;20056;-43
2022/04/09 11:25:08;;;;;;;1.55;0.57;;;;;;;27.47;28.16;101706.25;4918495;29;20394;-44
2022/04/09 11:27:37;;;;;;;0.50;0.30;;;;;;;27.49;28.45;101706.25;4918462;29;20035;-44
2022/04/09 11:30:08;;;;;;;1.95;0.60;;;;;;;27.49;28.56;101698.34;4901620;29;20123;-43
2022/04/09 11:32:37;;;;;;;1.48;0.50;;;;;;;27.52;28.28;101709.84;4917443;29;20051;-44
2022/04/09 11:35:10;;;;;;;0.73;0.30;;;;;;;27.50;28.35;101710.66;4917821;29;20055;-43
2022/04/09 11:37:49;;;;;;;0.80;0.22;;;;;;;27.52;28.64;101711.56;4917891;29;20116;-45